sensor_id;sensor_type;location;lat;lon;timestamp;P1;durP1;ratioP1;P2;durP2;ratioP2
11691;SDS011;33659;42.672;23.354;2022-12-10T00:01:39;11.90;;;5.67;;
11691;SDS011;33659;42.672;23.354;2022-12-10T00:04:07;12.67;;;6.03;;
11691;SDS011;33659;42.672;23.354;2022-12-10T00:06:35;12.10;;;5.30;;
11691;SDS011;33659;42.672;23.354;2022-12-10T00:09:03;11.90;;;6.07;;
11691;SDS011;33659;42.672;23.354;2022-12-10T00:11:31;13.83;;;6.60;;
11691;SDS011;33659;42.672;23.354;2022-12-10T00:13:59;11.57;;;6.07;;
11691;SDS011;33659;42.672;23.354;2022-12-10T00:16:27;15.30;;;5.57;;
11691;SDS011;33659;42.672;23.354;2022-12-10T00:18:55;12.70;;;5.97;;
11691;SDS011;33659;42.672;23.354;2022-12-10T00:21:23;16.53;;;6.00;;
11691;SDS011;33659;42.672;23.354;2022-12-10T00:23:51;9.83;;;5.20;;
11691;SDS011;33659;42.672;23.354;2022-12-10T00:26:18;16.67;;;6.23;;
11691;SDS011;33659;42.672;23.354;2022-12-10T00:28:46;10.50;;;5.47;;
11691;SDS011;33659;42.672;23.354;2022-12-10T00:31:15;13.80;;;5.97;;
11691;SDS011;33659;42.672;23.354;2022-12-10T00:33:43;11.80;;;5.87;;
11691;SDS011;33659;42.672;23.354;2022-12-10T00:36:12;15.37;;;6.00;;
11691;SDS011;33659;42.672;23.354;2022-12-10T00:38:39;12.90;;;6.50;;
11691;SDS011;33659;42.672;23.354;2022-12-10T00:41:07;11.77;;;6.33;;
11691;SDS011;33659;42.672;23.354;2022-12-10T00:43:34;17.53;;;5.90;;
11691;SDS011;33659;42.672;23.354;2022-12-10T00:46:01;12.93;;;6.60;;
11691;SDS011;33659;42.672;23.354;2022-12-10T00:48:29;10.07;;;5.43;;
11691;SDS011;33659;42.672;23.354;2022-12-10T00:50:57;14.87;;;5.70;;
11691;SDS011;33659;42.672;23.354;2022-12-10T00:53:25;12.27;;;5.77;;
11691;SDS011;33659;42.672;23.354;2022-12-10T00:55:53;15.37;;;6.40;;
11691;SDS011;33659;42.672;23.354;2022-12-10T00:58:20;14.47;;;5.50;;
11691;SDS011;33659;42.672;23.354;2022-12-10T01:00:47;12.73;;;5.53;;
11691;SDS011;33659;42.672;23.354;2022-12-10T01:03:14;14.87;;;5.60;;
11691;SDS011;33659;42.672;23.354;2022-12-10T01:05:43;12.97;;;5.80;;
11691;SDS011;33659;42.672;23.354;2022-12-10T01:08:09;11.73;;;5.77;;
11691;SDS011;33659;42.672;23.354;2022-12-10T01:10:36;10.90;;;5.73;;
11691;SDS011;33659;42.672;23.354;2022-12-10T01:13:03;9.90;;;5.23;;
11691;SDS011;33659;42.672;23.354;2022-12-10T01:15:30;9.27;;;5.67;;
11691;SDS011;33659;42.672;23.354;2022-12-10T01:17:57;10.47;;;5.00;;
11691;SDS011;33659;42.672;23.354;2022-12-10T01:20:24;11.63;;;5.00;;
11691;SDS011;33659;42.672;23.354;2022-12-10T01:22:52;12.60;;;5.40;;
11691;SDS011;33659;42.672;23.354;2022-12-10T01:25:18;10.83;;;5.53;;
11691;SDS011;33659;42.672;23.354;2022-12-10T01:27:45;12.73;;;5.60;;
11691;SDS011;33659;42.672;23.354;2022-12-10T01:30:12;12.53;;;5.73;;
11691;SDS011;33659;42.672;23.354;2022-12-10T01:32:38;14.57;;;6.53;;
11691;SDS011;33659;42.672;23.354;2022-12-10T01:35:05;12.60;;;6.23;;
11691;SDS011;33659;42.672;23.354;2022-12-10T01:37:33;10.67;;;6.00;;
11691;SDS011;33659;42.672;23.354;2022-12-10T01:40:01;8.43;;;5.30;;
11691;SDS011;33659;42.672;23.354;2022-12-10T01:42:27;9.53;;;6.30;;
11691;SDS011;33659;42.672;23.354;2022-12-10T01:45:05;11.00;;;5.30;;
11691;SDS011;33659;42.672;23.354;2022-12-10T01:47:35;11.43;;;4.50;;
11691;SDS011;33659;42.672;23.354;2022-12-10T01:50:01;16.03;;;5.30;;
11691;SDS011;33659;42.672;23.354;2022-12-10T01:52:29;10.97;;;5.33;;
11691;SDS011;33659;42.672;23.354;2022-12-10T01:54:56;12.20;;;5.37;;
11691;SDS011;33659;42.672;23.354;2022-12-10T01:57:25;10.17;;;4.90;;
11691;SDS011;33659;42.672;23.354;2022-12-10T01:59:54;12.33;;;5.30;;
11691;SDS011;33659;42.672;23.354;2022-12-10T02:02:29;8.83;;;4.87;;
11691;SDS011;33659;42.672;23.354;2022-12-10T02:05:08;7.27;;;4.30;;
11691;SDS011;33659;42.672;23.354;2022-12-10T02:07:48;7.17;;;4.40;;
11691;SDS011;33659;42.672;23.354;2022-12-10T02:10:34;12.07;;;4.73;;
11691;SDS011;33659;42.672;23.354;2022-12-10T02:13:11;11.93;;;4.80;;
11691;SDS011;33659;42.672;23.354;2022-12-10T02:15:44;11.37;;;4.63;;
11691;SDS011;33659;42.672;23.354;2022-12-10T02:18:17;10.50;;;4.67;;
11691;SDS011;33659;42.672;23.354;2022-12-10T02:20:48;8.03;;;4.73;;
11691;SDS011;33659;42.672;23.354;2022-12-10T02:23:19;8.63;;;4.80;;
11691;SDS011;33659;42.672;23.354;2022-12-10T02:25:52;10.20;;;5.17;;
11691;SDS011;33659;42.672;23.354;2022-12-10T02:28:30;8.27;;;4.83;;
11691;SDS011;33659;42.672;23.354;2022-12-10T02:31:04;7.57;;;4.63;;
11691;SDS011;33659;42.672;23.354;2022-12-10T02:33:31;10.83;;;4.90;;
11691;SDS011;33659;42.672;23.354;2022-12-10T02:36:00;10.63;;;5.43;;
11691;SDS011;33659;42.672;23.354;2022-12-10T02:38:29;10.83;;;5.03;;
11691;SDS011;33659;42.672;23.354;2022-12-10T02:40:59;7.93;;;4.97;;
11691;SDS011;33659;42.672;23.354;2022-12-10T02:43:28;8.20;;;4.97;;
11691;SDS011;33659;42.672;23.354;2022-12-10T02:45:56;9.67;;;5.20;;
11691;SDS011;33659;42.672;23.354;2022-12-10T02:48:26;12.40;;;5.50;;
11691;SDS011;33659;42.672;23.354;2022-12-10T02:50:54;10.90;;;4.63;;
11691;SDS011;33659;42.672;23.354;2022-12-10T02:53:21;9.10;;;4.83;;
11691;SDS011;33659;42.672;23.354;2022-12-10T02:55:55;7.77;;;4.70;;
11691;SDS011;33659;42.672;23.354;2022-12-10T02:58:34;7.80;;;4.40;;
11691;SDS011;33659;42.672;23.354;2022-12-10T03:01:11;7.83;;;4.30;;
11691;SDS011;33659;42.672;23.354;2022-12-10T03:03:52;7.27;;;4.97;;
11691;SDS011;33659;42.672;23.354;2022-12-10T03:06:26;12.23;;;5.43;;
11691;SDS011;33659;42.672;23.354;2022-12-10T03:08:58;15.13;;;5.40;;
11691;SDS011;33659;42.672;23.354;2022-12-10T03:11:30;7.40;;;4.83;;
11691;SDS011;33659;42.672;23.354;2022-12-10T03:13:58;7.33;;;4.93;;
11691;SDS011;33659;42.672;23.354;2022-12-10T03:16:29;7.03;;;4.77;;
11691;SDS011;33659;42.672;23.354;2022-12-10T03:19:03;5.77;;;4.07;;
11691;SDS011;33659;42.672;23.354;2022-12-10T03:21:32;8.63;;;3.83;;
11691;SDS011;33659;42.672;23.354;2022-12-10T03:24:01;9.57;;;4.37;;
11691;SDS011;33659;42.672;23.354;2022-12-10T03:26:29;7.77;;;4.40;;
11691;SDS011;33659;42.672;23.354;2022-12-10T03:28:59;7.90;;;4.03;;
11691;SDS011;33659;42.672;23.354;2022-12-10T03:31:30;7.23;;;4.93;;
11691;SDS011;33659;42.672;23.354;2022-12-10T03:34:00;13.17;;;4.57;;
11691;SDS011;33659;42.672;23.354;2022-12-10T03:36:30;8.90;;;4.67;;
11691;SDS011;33659;42.672;23.354;2022-12-10T03:38:58;6.73;;;4.00;;
11691;SDS011;33659;42.672;23.354;2022-12-10T03:41:25;10.23;;;4.50;;
11691;SDS011;33659;42.672;23.354;2022-12-10T03:43:52;8.27;;;4.93;;
11691;SDS011;33659;42.672;23.354;2022-12-10T03:46:20;5.27;;;4.20;;
11691;SDS011;33659;42.672;23.354;2022-12-10T03:48:47;7.90;;;4.47;;
11691;SDS011;33659;42.672;23.354;2022-12-10T03:51:16;11.50;;;4.67;;
11691;SDS011;33659;42.672;23.354;2022-12-10T03:53:42;7.73;;;4.67;;
11691;SDS011;33659;42.672;23.354;2022-12-10T03:56:09;5.83;;;3.80;;
11691;SDS011;33659;42.672;23.354;2022-12-10T03:58:36;12.67;;;4.47;;
11691;SDS011;33659;42.672;23.354;2022-12-10T04:01:03;7.67;;;4.60;;
11691;SDS011;33659;42.672;23.354;2022-12-10T04:03:30;9.73;;;3.63;;
11691;SDS011;33659;42.672;23.354;2022-12-10T04:06:00;10.87;;;4.33;;
11691;SDS011;33659;42.672;23.354;2022-12-10T04:08:29;6.90;;;3.93;;
11691;SDS011;33659;42.672;23.354;2022-12-10T04:11:01;8.60;;;4.00;;
11691;SDS011;33659;42.672;23.354;2022-12-10T04:13:30;8.70;;;4.60;;
11691;SDS011;33659;42.672;23.354;2022-12-10T04:16:15;9.00;;;4.10;;
11691;SDS011;33659;42.672;23.354;2022-12-10T04:18:55;12.07;;;4.63;;
11691;SDS011;33659;42.672;23.354;2022-12-10T04:21:23;8.53;;;4.90;;
11691;SDS011;33659;42.672;23.354;2022-12-10T04:24:10;12.10;;;4.77;;
11691;SDS011;33659;42.672;23.354;2022-12-10T04:26:55;10.03;;;4.30;;
11691;SDS011;33659;42.672;23.354;2022-12-10T04:29:23;11.30;;;3.97;;
11691;SDS011;33659;42.672;23.354;2022-12-10T04:31:51;7.50;;;4.27;;
11691;SDS011;33659;42.672;23.354;2022-12-10T04:34:19;9.20;;;4.03;;
11691;SDS011;33659;42.672;23.354;2022-12-10T04:36:46;8.87;;;5.33;;
11691;SDS011;33659;42.672;23.354;2022-12-10T04:39:14;8.57;;;4.87;;
11691;SDS011;33659;42.672;23.354;2022-12-10T04:41:43;13.03;;;5.00;;
11691;SDS011;33659;42.672;23.354;2022-12-10T04:44:11;10.40;;;4.57;;
11691;SDS011;33659;42.672;23.354;2022-12-10T04:46:38;8.10;;;4.70;;
11691;SDS011;33659;42.672;23.354;2022-12-10T04:49:05;11.40;;;5.10;;
11691;SDS011;33659;42.672;23.354;2022-12-10T04:51:32;10.60;;;4.93;;
11691;SDS011;33659;42.672;23.354;2022-12-10T04:53:59;11.60;;;4.90;;
11691;SDS011;33659;42.672;23.354;2022-12-10T04:56:27;8.47;;;4.67;;
11691;SDS011;33659;42.672;23.354;2022-12-10T04:58:55;10.03;;;5.20;;
11691;SDS011;33659;42.672;23.354;2022-12-10T05:01:22;7.70;;;4.60;;
11691;SDS011;33659;42.672;23.354;2022-12-10T05:03:48;10.00;;;4.70;;
11691;SDS011;33659;42.672;23.354;2022-12-10T05:06:16;11.30;;;4.87;;
11691;SDS011;33659;42.672;23.354;2022-12-10T05:08:44;8.60;;;4.80;;
11691;SDS011;33659;42.672;23.354;2022-12-10T05:11:12;7.47;;;4.40;;
11691;SDS011;33659;42.672;23.354;2022-12-10T05:13:42;6.27;;;4.70;;
11691;SDS011;33659;42.672;23.354;2022-12-10T05:16:10;10.77;;;5.23;;
11691;SDS011;33659;42.672;23.354;2022-12-10T05:18:38;8.33;;;4.80;;
11691;SDS011;33659;42.672;23.354;2022-12-10T05:21:05;7.23;;;5.03;;
11691;SDS011;33659;42.672;23.354;2022-12-10T05:23:35;7.30;;;4.93;;
11691;SDS011;33659;42.672;23.354;2022-12-10T05:26:02;12.67;;;4.57;;
11691;SDS011;33659;42.672;23.354;2022-12-10T05:28:31;6.73;;;4.80;;
11691;SDS011;33659;42.672;23.354;2022-12-10T05:31:01;11.23;;;5.33;;
11691;SDS011;33659;42.672;23.354;2022-12-10T05:33:28;13.70;;;5.93;;
11691;SDS011;33659;42.672;23.354;2022-12-10T05:35:56;9.70;;;5.87;;
11691;SDS011;33659;42.672;23.354;2022-12-10T05:38:25;8.03;;;5.30;;
11691;SDS011;33659;42.672;23.354;2022-12-10T05:40:53;11.67;;;6.83;;
11691;SDS011;33659;42.672;23.354;2022-12-10T05:43:20;8.90;;;5.17;;
11691;SDS011;33659;42.672;23.354;2022-12-10T05:45:47;10.00;;;6.10;;
11691;SDS011;33659;42.672;23.354;2022-12-10T05:48:15;6.40;;;4.90;;
11691;SDS011;33659;42.672;23.354;2022-12-10T05:50:42;7.20;;;5.03;;
11691;SDS011;33659;42.672;23.354;2022-12-10T05:53:09;14.40;;;5.70;;
11691;SDS011;33659;42.672;23.354;2022-12-10T05:55:38;12.93;;;5.50;;
11691;SDS011;33659;42.672;23.354;2022-12-10T05:58:05;12.13;;;6.00;;
11691;SDS011;33659;42.672;23.354;2022-12-10T06:00:32;9.83;;;5.20;;
11691;SDS011;33659;42.672;23.354;2022-12-10T06:02:59;11.67;;;5.87;;
11691;SDS011;33659;42.672;23.354;2022-12-10T06:05:27;8.13;;;5.33;;
11691;SDS011;33659;42.672;23.354;2022-12-10T06:07:53;10.40;;;4.47;;
11691;SDS011;33659;42.672;23.354;2022-12-10T06:10:20;8.07;;;5.40;;
11691;SDS011;33659;42.672;23.354;2022-12-10T06:12:46;10.30;;;5.23;;
11691;SDS011;33659;42.672;23.354;2022-12-10T06:15:13;10.77;;;5.43;;
11691;SDS011;33659;42.672;23.354;2022-12-10T06:17:40;10.20;;;5.27;;
11691;SDS011;33659;42.672;23.354;2022-12-10T06:20:07;10.00;;;5.90;;
11691;SDS011;33659;42.672;23.354;2022-12-10T06:22:35;9.63;;;5.20;;
11691;SDS011;33659;42.672;23.354;2022-12-10T06:25:02;10.23;;;5.50;;
11691;SDS011;33659;42.672;23.354;2022-12-10T06:27:30;10.23;;;5.53;;
11691;SDS011;33659;42.672;23.354;2022-12-10T06:29:57;12.37;;;5.73;;
11691;SDS011;33659;42.672;23.354;2022-12-10T06:32:24;13.50;;;5.10;;
11691;SDS011;33659;42.672;23.354;2022-12-10T06:34:51;12.97;;;5.23;;
11691;SDS011;33659;42.672;23.354;2022-12-10T06:37:17;8.00;;;5.20;;
11691;SDS011;33659;42.672;23.354;2022-12-10T06:39:45;11.87;;;5.57;;
11691;SDS011;33659;42.672;23.354;2022-12-10T06:42:12;8.87;;;5.83;;
11691;SDS011;33659;42.672;23.354;2022-12-10T06:44:39;16.87;;;6.17;;
11691;SDS011;33659;42.672;23.354;2022-12-10T06:47:05;9.43;;;5.27;;
11691;SDS011;33659;42.672;23.354;2022-12-10T06:49:32;11.10;;;5.67;;
11691;SDS011;33659;42.672;23.354;2022-12-10T06:51:59;9.30;;;6.00;;
11691;SDS011;33659;42.672;23.354;2022-12-10T06:54:26;11.57;;;5.83;;
11691;SDS011;33659;42.672;23.354;2022-12-10T06:56:54;10.23;;;6.07;;
11691;SDS011;33659;42.672;23.354;2022-12-10T06:59:20;14.13;;;6.50;;
11691;SDS011;33659;42.672;23.354;2022-12-10T07:01:47;8.30;;;5.93;;
11691;SDS011;33659;42.672;23.354;2022-12-10T07:04:14;13.50;;;6.57;;
11691;SDS011;33659;42.672;23.354;2022-12-10T07:06:40;10.63;;;6.03;;
11691;SDS011;33659;42.672;23.354;2022-12-10T07:09:07;9.43;;;6.20;;
11691;SDS011;33659;42.672;23.354;2022-12-10T07:11:35;10.27;;;5.93;;
11691;SDS011;33659;42.672;23.354;2022-12-10T07:14:03;10.07;;;6.13;;
11691;SDS011;33659;42.672;23.354;2022-12-10T07:16:30;9.47;;;6.00;;
11691;SDS011;33659;42.672;23.354;2022-12-10T07:18:58;10.13;;;5.53;;
11691;SDS011;33659;42.672;23.354;2022-12-10T07:21:27;12.67;;;6.03;;
11691;SDS011;33659;42.672;23.354;2022-12-10T07:23:57;11.10;;;6.97;;
11691;SDS011;33659;42.672;23.354;2022-12-10T07:26:27;11.07;;;6.63;;
11691;SDS011;33659;42.672;23.354;2022-12-10T07:28:55;10.80;;;7.10;;
11691;SDS011;33659;42.672;23.354;2022-12-10T07:31:25;9.47;;;6.77;;
11691;SDS011;33659;42.672;23.354;2022-12-10T07:33:52;12.63;;;7.40;;
11691;SDS011;33659;42.672;23.354;2022-12-10T07:36:20;12.57;;;6.57;;
11691;SDS011;33659;42.672;23.354;2022-12-10T07:38:48;12.10;;;7.00;;
11691;SDS011;33659;42.672;23.354;2022-12-10T07:41:15;10.73;;;6.63;;
11691;SDS011;33659;42.672;23.354;2022-12-10T07:43:43;11.07;;;7.10;;
11691;SDS011;33659;42.672;23.354;2022-12-10T07:46:11;9.90;;;6.73;;
11691;SDS011;33659;42.672;23.354;2022-12-10T07:48:41;13.60;;;6.70;;
11691;SDS011;33659;42.672;23.354;2022-12-10T07:51:09;11.60;;;7.83;;
11691;SDS011;33659;42.672;23.354;2022-12-10T07:53:36;14.83;;;8.10;;
11691;SDS011;33659;42.672;23.354;2022-12-10T07:56:03;14.27;;;6.80;;
11691;SDS011;33659;42.672;23.354;2022-12-10T07:58:31;14.53;;;7.27;;
11691;SDS011;33659;42.672;23.354;2022-12-10T08:00:58;8.37;;;6.73;;
11691;SDS011;33659;42.672;23.354;2022-12-10T08:03:25;16.17;;;7.50;;
11691;SDS011;33659;42.672;23.354;2022-12-10T08:06:01;11.53;;;6.57;;
11691;SDS011;33659;42.672;23.354;2022-12-10T08:08:28;9.40;;;6.73;;
11691;SDS011;33659;42.672;23.354;2022-12-10T08:10:55;11.73;;;6.53;;
11691;SDS011;33659;42.672;23.354;2022-12-10T08:13:21;9.70;;;6.80;;
11691;SDS011;33659;42.672;23.354;2022-12-10T08:15:48;12.03;;;6.53;;
11691;SDS011;33659;42.672;23.354;2022-12-10T08:18:14;11.50;;;7.50;;
11691;SDS011;33659;42.672;23.354;2022-12-10T08:20:41;12.97;;;6.80;;
11691;SDS011;33659;42.672;23.354;2022-12-10T08:23:09;10.30;;;6.60;;
11691;SDS011;33659;42.672;23.354;2022-12-10T08:25:36;10.13;;;7.07;;
11691;SDS011;33659;42.672;23.354;2022-12-10T08:28:03;14.20;;;7.00;;
11691;SDS011;33659;42.672;23.354;2022-12-10T08:30:30;14.23;;;7.03;;
11691;SDS011;33659;42.672;23.354;2022-12-10T08:32:57;14.47;;;7.07;;
11691;SDS011;33659;42.672;23.354;2022-12-10T08:35:23;11.07;;;7.30;;
11691;SDS011;33659;42.672;23.354;2022-12-10T08:37:50;10.23;;;7.18;;
11691;SDS011;33659;42.672;23.354;2022-12-10T08:40:18;8.50;;;6.63;;
11691;SDS011;33659;42.672;23.354;2022-12-10T08:42:45;11.90;;;7.20;;
11691;SDS011;33659;42.672;23.354;2022-12-10T08:45:12;10.83;;;7.10;;
11691;SDS011;33659;42.672;23.354;2022-12-10T08:47:38;10.93;;;8.53;;
11691;SDS011;33659;42.672;23.354;2022-12-10T08:50:05;13.40;;;7.30;;
11691;SDS011;33659;42.672;23.354;2022-12-10T08:52:32;13.60;;;7.80;;
11691;SDS011;33659;42.672;23.354;2022-12-10T08:54:59;11.88;;;8.20;;
11691;SDS011;33659;42.672;23.354;2022-12-10T08:57:27;13.77;;;8.73;;
11691;SDS011;33659;42.672;23.354;2022-12-10T08:59:53;19.40;;;9.20;;
11691;SDS011;33659;42.672;23.354;2022-12-10T09:02:20;14.67;;;8.83;;
11691;SDS011;33659;42.672;23.354;2022-12-10T09:04:47;17.93;;;9.40;;
11691;SDS011;33659;42.672;23.354;2022-12-10T09:07:14;15.67;;;8.93;;
11691;SDS011;33659;42.672;23.354;2022-12-10T09:09:41;15.90;;;9.15;;
11691;SDS011;33659;42.672;23.354;2022-12-10T09:12:08;13.30;;;9.23;;
11691;SDS011;33659;42.672;23.354;2022-12-10T09:14:36;15.00;;;8.68;;
11691;SDS011;33659;42.672;23.354;2022-12-10T09:17:05;12.80;;;9.33;;
11691;SDS011;33659;42.672;23.354;2022-12-10T09:19:32;13.07;;;8.30;;
11691;SDS011;33659;42.672;23.354;2022-12-10T09:21:59;13.87;;;8.77;;
11691;SDS011;33659;42.672;23.354;2022-12-10T09:24:25;13.57;;;7.87;;
11691;SDS011;33659;42.672;23.354;2022-12-10T09:26:52;13.17;;;8.87;;
11691;SDS011;33659;42.672;23.354;2022-12-10T09:29:19;11.07;;;7.55;;
11691;SDS011;33659;42.672;23.354;2022-12-10T09:31:50;18.50;;;8.48;;
11691;SDS011;33659;42.672;23.354;2022-12-10T09:34:17;16.95;;;7.55;;
11691;SDS011;33659;42.672;23.354;2022-12-10T09:36:44;13.52;;;8.02;;
11691;SDS011;33659;42.672;23.354;2022-12-10T09:39:11;17.15;;;7.97;;
11691;SDS011;33659;42.672;23.354;2022-12-10T09:44:32;11.05;;;7.90;;
11691;SDS011;33659;42.672;23.354;2022-12-10T09:47:09;13.23;;;7.35;;
11691;SDS011;33659;42.672;23.354;2022-12-10T09:49:40;14.63;;;8.45;;
11691;SDS011;33659;42.672;23.354;2022-12-10T09:52:16;15.63;;;7.93;;
11691;SDS011;33659;42.672;23.354;2022-12-10T09:54:45;19.27;;;7.60;;
11691;SDS011;33659;42.672;23.354;2022-12-10T09:57:17;12.75;;;7.85;;
11691;SDS011;33659;42.672;23.354;2022-12-10T09:59:47;11.60;;;9.18;;
11691;SDS011;33659;42.672;23.354;2022-12-10T10:02:19;22.25;;;12.70;;
11691;SDS011;33659;42.672;23.354;2022-12-10T10:04:48;20.33;;;13.98;;
11691;SDS011;33659;42.672;23.354;2022-12-10T10:07:17;22.83;;;14.38;;
11691;SDS011;33659;42.672;23.354;2022-12-10T10:09:46;20.20;;;12.25;;
11691;SDS011;33659;42.672;23.354;2022-12-10T10:12:15;12.85;;;9.30;;
11691;SDS011;33659;42.672;23.354;2022-12-10T10:14:42;9.82;;;7.78;;
11691;SDS011;33659;42.672;23.354;2022-12-10T10:17:11;12.88;;;7.15;;
11691;SDS011;33659;42.672;23.354;2022-12-10T10:19:44;8.88;;;6.55;;
11691;SDS011;33659;42.672;23.354;2022-12-10T10:22:10;9.45;;;5.85;;
11691;SDS011;33659;42.672;23.354;2022-12-10T10:24:39;9.77;;;6.30;;
11691;SDS011;33659;42.672;23.354;2022-12-10T10:27:12;8.75;;;6.13;;
11691;SDS011;33659;42.672;23.354;2022-12-10T10:29:41;11.73;;;6.57;;
11691;SDS011;33659;42.672;23.354;2022-12-10T10:32:11;9.23;;;6.30;;
11691;SDS011;33659;42.672;23.354;2022-12-10T10:34:40;12.55;;;6.57;;
11691;SDS011;33659;42.672;23.354;2022-12-10T10:37:12;10.05;;;5.65;;
11691;SDS011;33659;42.672;23.354;2022-12-10T10:39:46;10.00;;;6.10;;
11691;SDS011;33659;42.672;23.354;2022-12-10T10:42:27;9.55;;;5.68;;
11691;SDS011;33659;42.672;23.354;2022-12-10T10:45:01;12.32;;;6.00;;
11691;SDS011;33659;42.672;23.354;2022-12-10T10:47:30;12.35;;;6.78;;
11691;SDS011;33659;42.672;23.354;2022-12-10T10:49:58;10.90;;;6.97;;
11691;SDS011;33659;42.672;23.354;2022-12-10T10:52:28;10.23;;;6.63;;
11691;SDS011;33659;42.672;23.354;2022-12-10T10:54:56;11.63;;;6.95;;
11691;SDS011;33659;42.672;23.354;2022-12-10T10:57:23;12.10;;;6.80;;
11691;SDS011;33659;42.672;23.354;2022-12-10T10:59:53;10.40;;;7.22;;
11691;SDS011;33659;42.672;23.354;2022-12-10T11:02:27;11.80;;;6.30;;
11691;SDS011;33659;42.672;23.354;2022-12-10T11:04:56;9.75;;;6.45;;
11691;SDS011;33659;42.672;23.354;2022-12-10T11:07:26;8.13;;;6.88;;
11691;SDS011;33659;42.672;23.354;2022-12-10T11:10:02;15.07;;;7.18;;
11691;SDS011;33659;42.672;23.354;2022-12-10T11:12:34;15.60;;;7.65;;
11691;SDS011;33659;42.672;23.354;2022-12-10T11:15:04;8.52;;;6.82;;
11691;SDS011;33659;42.672;23.354;2022-12-10T11:17:55;10.52;;;7.13;;
11691;SDS011;33659;42.672;23.354;2022-12-10T11:20:23;14.57;;;6.70;;
11691;SDS011;33659;42.672;23.354;2022-12-10T11:22:53;9.13;;;6.28;;
11691;SDS011;33659;42.672;23.354;2022-12-10T11:25:24;12.50;;;6.55;;
11691;SDS011;33659;42.672;23.354;2022-12-10T11:28:06;11.30;;;6.38;;
11691;SDS011;33659;42.672;23.354;2022-12-10T11:30:45;14.73;;;6.10;;
11691;SDS011;33659;42.672;23.354;2022-12-10T11:33:20;10.93;;;5.90;;
11691;SDS011;33659;42.672;23.354;2022-12-10T11:35:54;9.65;;;5.68;;
11691;SDS011;33659;42.672;23.354;2022-12-10T11:38:29;7.35;;;5.15;;
11691;SDS011;33659;42.672;23.354;2022-12-10T11:41:01;7.93;;;5.65;;
11691;SDS011;33659;42.672;23.354;2022-12-10T11:43:42;9.68;;;5.47;;
11691;SDS011;33659;42.672;23.354;2022-12-10T11:46:24;9.75;;;5.50;;
11691;SDS011;33659;42.672;23.354;2022-12-10T11:49:09;8.25;;;5.13;;
11691;SDS011;33659;42.672;23.354;2022-12-10T11:51:50;10.93;;;5.78;;
11691;SDS011;33659;42.672;23.354;2022-12-10T11:54:36;7.53;;;4.80;;
11691;SDS011;33659;42.672;23.354;2022-12-10T11:57:16;8.05;;;4.30;;
11691;SDS011;33659;42.672;23.354;2022-12-10T11:59:51;6.97;;;4.68;;
11691;SDS011;33659;42.672;23.354;2022-12-10T12:02:29;10.88;;;4.97;;
11691;SDS011;33659;42.672;23.354;2022-12-10T12:05:20;9.50;;;4.57;;
11691;SDS011;33659;42.672;23.354;2022-12-10T12:08:04;10.85;;;4.85;;
11691;SDS011;33659;42.672;23.354;2022-12-10T12:13:40;11.02;;;4.70;;
11691;SDS011;33659;42.672;23.354;2022-12-10T12:16:14;7.57;;;5.00;;
11691;SDS011;33659;42.672;23.354;2022-12-10T12:18:45;10.85;;;5.00;;
11691;SDS011;33659;42.672;23.354;2022-12-10T12:21:17;8.85;;;4.90;;
11691;SDS011;33659;42.672;23.354;2022-12-10T12:23:46;7.40;;;5.15;;
11691;SDS011;33659;42.672;23.354;2022-12-10T12:26:21;9.57;;;4.90;;
11691;SDS011;33659;42.672;23.354;2022-12-10T12:28:53;8.05;;;5.07;;
11691;SDS011;33659;42.672;23.354;2022-12-10T12:31:29;10.80;;;5.13;;
11691;SDS011;33659;42.672;23.354;2022-12-10T12:34:01;11.20;;;4.65;;
11691;SDS011;33659;42.672;23.354;2022-12-10T12:36:32;8.38;;;5.05;;
11691;SDS011;33659;42.672;23.354;2022-12-10T12:39:02;9.30;;;4.47;;
11691;SDS011;33659;42.672;23.354;2022-12-10T12:41:40;8.18;;;5.15;;
11691;SDS011;33659;42.672;23.354;2022-12-10T12:44:15;8.00;;;4.95;;
11691;SDS011;33659;42.672;23.354;2022-12-10T12:46:50;8.75;;;5.00;;
11691;SDS011;33659;42.672;23.354;2022-12-10T12:49:20;9.40;;;5.30;;
11691;SDS011;33659;42.672;23.354;2022-12-10T12:51:52;7.38;;;5.05;;
11691;SDS011;33659;42.672;23.354;2022-12-10T12:54:22;9.93;;;5.55;;
11691;SDS011;33659;42.672;23.354;2022-12-10T12:57:01;14.70;;;5.88;;
11691;SDS011;33659;42.672;23.354;2022-12-10T12:59:36;9.07;;;5.45;;
11691;SDS011;33659;42.672;23.354;2022-12-10T13:02:23;10.02;;;6.30;;
11691;SDS011;33659;42.672;23.354;2022-12-10T13:05:11;7.45;;;5.45;;
11691;SDS011;33659;42.672;23.354;2022-12-10T13:07:40;13.13;;;5.88;;
11691;SDS011;33659;42.672;23.354;2022-12-10T13:10:08;15.82;;;5.93;;
11691;SDS011;33659;42.672;23.354;2022-12-10T13:12:51;7.60;;;4.53;;
11691;SDS011;33659;42.672;23.354;2022-12-10T13:15:33;8.73;;;4.70;;
11691;SDS011;33659;42.672;23.354;2022-12-10T13:18:03;9.23;;;4.45;;
11691;SDS011;33659;42.672;23.354;2022-12-10T13:20:44;12.50;;;5.78;;
11691;SDS011;33659;42.672;23.354;2022-12-10T13:23:30;9.70;;;5.78;;
11691;SDS011;33659;42.672;23.354;2022-12-10T13:25:59;10.65;;;6.20;;
11691;SDS011;33659;42.672;23.354;2022-12-10T13:28:30;9.02;;;5.32;;
11691;SDS011;33659;42.672;23.354;2022-12-10T13:31:08;10.48;;;5.20;;
11691;SDS011;33659;42.672;23.354;2022-12-10T13:33:45;9.90;;;5.47;;
11691;SDS011;33659;42.672;23.354;2022-12-10T13:36:19;8.05;;;5.43;;
11691;SDS011;33659;42.672;23.354;2022-12-10T13:38:54;11.90;;;6.00;;
11691;SDS011;33659;42.672;23.354;2022-12-10T13:41:23;12.38;;;6.50;;
11691;SDS011;33659;42.672;23.354;2022-12-10T13:44:27;13.73;;;6.18;;
11691;SDS011;33659;42.672;23.354;2022-12-10T13:47:03;9.70;;;6.00;;
11691;SDS011;33659;42.672;23.354;2022-12-10T13:49:33;11.82;;;5.53;;
11691;SDS011;33659;42.672;23.354;2022-12-10T13:52:14;12.35;;;5.80;;
11691;SDS011;33659;42.672;23.354;2022-12-10T13:54:58;10.75;;;6.18;;
11691;SDS011;33659;42.672;23.354;2022-12-10T14:00:31;13.07;;;5.87;;
11691;SDS011;33659;42.672;23.354;2022-12-10T14:03:14;12.38;;;6.30;;
11691;SDS011;33659;42.672;23.354;2022-12-10T14:06:12;13.75;;;6.10;;
11691;SDS011;33659;42.672;23.354;2022-12-10T14:08:44;10.23;;;5.67;;
11691;SDS011;33659;42.672;23.354;2022-12-10T14:11:21;9.52;;;6.05;;
11691;SDS011;33659;42.672;23.354;2022-12-10T14:13:51;13.95;;;6.30;;
11691;SDS011;33659;42.672;23.354;2022-12-10T14:16:24;11.52;;;5.55;;
11691;SDS011;33659;42.672;23.354;2022-12-10T14:18:54;11.02;;;5.97;;
11691;SDS011;33659;42.672;23.354;2022-12-10T14:21:24;15.70;;;6.78;;
11691;SDS011;33659;42.672;23.354;2022-12-10T14:23:51;13.70;;;5.97;;
11691;SDS011;33659;42.672;23.354;2022-12-10T14:26:20;8.98;;;5.38;;
11691;SDS011;33659;42.672;23.354;2022-12-10T14:28:48;9.68;;;5.28;;
11691;SDS011;33659;42.672;23.354;2022-12-10T14:31:17;10.32;;;5.38;;
11691;SDS011;33659;42.672;23.354;2022-12-10T14:33:48;12.45;;;5.53;;
11691;SDS011;33659;42.672;23.354;2022-12-10T14:36:26;9.65;;;5.30;;
11691;SDS011;33659;42.672;23.354;2022-12-10T14:38:54;16.42;;;7.03;;
11691;SDS011;33659;42.672;23.354;2022-12-10T14:41:22;12.10;;;6.50;;
11691;SDS011;33659;42.672;23.354;2022-12-10T14:43:50;12.77;;;6.55;;
11691;SDS011;33659;42.672;23.354;2022-12-10T14:46:19;14.05;;;5.63;;
11691;SDS011;33659;42.672;23.354;2022-12-10T14:48:50;14.55;;;6.00;;
11691;SDS011;33659;42.672;23.354;2022-12-10T14:51:18;16.02;;;6.00;;
11691;SDS011;33659;42.672;23.354;2022-12-10T14:53:46;10.80;;;5.90;;